sensor_id;sensor_type;location;lat;lon;timestamp;temperature;humidity
67279;DHT22;54193;53.746;10.058;2024-02-16T00:00:26;12.16;92.01
67279;DHT22;54193;53.746;10.058;2024-02-16T00:03:12;12.16;92.22
67279;DHT22;54193;53.746;10.058;2024-02-16T00:05:57;12.15;92.15
67279;DHT22;54193;53.746;10.058;2024-02-16T00:08:43;12.15;92.24
67279;DHT22;54193;53.746;10.058;2024-02-16T00:11:28;12.11;92.22
67279;DHT22;54193;53.746;10.058;2024-02-16T00:14:14;12.08;92.18
67279;DHT22;54193;53.746;10.058;2024-02-16T00:17:00;12.12;92.20
67279;DHT22;54193;53.746;10.058;2024-02-16T00:19:45;12.09;92.17
67279;DHT22;54193;53.746;10.058;2024-02-16T00:22:31;12.06;92.10
67279;DHT22;54193;53.746;10.058;2024-02-16T00:25:17;12.01;92.05
67279;DHT22;54193;53.746;10.058;2024-02-16T00:28:03;11.98;91.95
67279;DHT22;54193;53.746;10.058;2024-02-16T00:30:49;11.91;92.00
67279;DHT22;54193;53.746;10.058;2024-02-16T00:33:34;12.01;91.80
67279;DHT22;54193;53.746;10.058;2024-02-16T00:36:20;12.06;91.73
67279;DHT22;54193;53.746;10.058;2024-02-16T00:39:06;11.99;91.63
67279;DHT22;54193;53.746;10.058;2024-02-16T00:41:51;12.01;91.63
67279;DHT22;54193;53.746;10.058;2024-02-16T00:44:37;12.08;91.52
67279;DHT22;54193;53.746;10.058;2024-02-16T00:47:22;12.03;91.47
67279;DHT22;54193;53.746;10.058;2024-02-16T00:50:09;12.03;91.37
67279;DHT22;54193;53.746;10.058;2024-02-16T00:52:54;12.06;91.48
67279;DHT22;54193;53.746;10.058;2024-02-16T00:55:40;12.05;91.33
67279;DHT22;54193;53.746;10.058;2024-02-16T00:58:27;12.08;91.21
67279;DHT22;54193;53.746;10.058;2024-02-16T01:01:12;12.11;91.15
67279;DHT22;54193;53.746;10.058;2024-02-16T01:03:59;12.08;90.91
67279;DHT22;54193;53.746;10.058;2024-02-16T01:06:44;12.13;90.83
67279;DHT22;54193;53.746;10.058;2024-02-16T01:09:31;12.06;90.72
67279;DHT22;54193;53.746;10.058;2024-02-16T01:12:17;12.08;90.62
67279;DHT22;54193;53.746;10.058;2024-02-16T01:15:03;12.09;90.36
67279;DHT22;54193;53.746;10.058;2024-02-16T01:17:48;12.02;90.45
67279;DHT22;54193;53.746;10.058;2024-02-16T01:20:34;11.96;90.36
67279;DHT22;54193;53.746;10.058;2024-02-16T01:23:20;11.94;90.28
67279;DHT22;54193;53.746;10.058;2024-02-16T01:26:06;11.94;90.45
67279;DHT22;54193;53.746;10.058;2024-02-16T01:28:52;11.89;90.55
67279;DHT22;54193;53.746;10.058;2024-02-16T01:31:37;11.85;90.43
67279;DHT22;54193;53.746;10.058;2024-02-16T01:34:23;11.85;90.47
67279;DHT22;54193;53.746;10.058;2024-02-16T01:37:09;11.82;90.49
67279;DHT22;54193;53.746;10.058;2024-02-16T01:39:54;11.78;90.68
67279;DHT22;54193;53.746;10.058;2024-02-16T01:42:41;11.77;90.79
67279;DHT22;54193;53.746;10.058;2024-02-16T01:45:27;11.81;90.75
67279;DHT22;54193;53.746;10.058;2024-02-16T01:48:16;11.75;90.73
67279;DHT22;54193;53.746;10.058;2024-02-16T01:51:02;11.82;90.49
67279;DHT22;54193;53.746;10.058;2024-02-16T01:53:48;11.78;90.50
67279;DHT22;54193;53.746;10.058;2024-02-16T01:56:34;11.78;90.65
67279;DHT22;54193;53.746;10.058;2024-02-16T01:59:19;11.81;90.62
67279;DHT22;54193;53.746;10.058;2024-02-16T02:02:05;11.73;90.71
67279;DHT22;54193;53.746;10.058;2024-02-16T02:04:51;11.77;90.67
67279;DHT22;54193;53.746;10.058;2024-02-16T02:07:36;11.77;90.65
67279;DHT22;54193;53.746;10.058;2024-02-16T02:10:22;11.75;90.73
67279;DHT22;54193;53.746;10.058;2024-02-16T02:13:08;11.74;90.78
67279;DHT22;54193;53.746;10.058;2024-02-16T02:15:54;11.71;90.82
67279;DHT22;54193;53.746;10.058;2024-02-16T02:18:40;11.71;90.68
67279;DHT22;54193;53.746;10.058;2024-02-16T02:21:26;11.75;90.71
67279;DHT22;54193;53.746;10.058;2024-02-16T02:24:11;11.68;90.74
67279;DHT22;54193;53.746;10.058;2024-02-16T02:26:57;11.70;90.81
67279;DHT22;54193;53.746;10.058;2024-02-16T02:29:43;11.68;90.78
67279;DHT22;54193;53.746;10.058;2024-02-16T02:32:29;11.65;90.76
67279;DHT22;54193;53.746;10.058;2024-02-16T02:35:16;11.63;90.82
67279;DHT22;54193;53.746;10.058;2024-02-16T02:38:02;11.65;90.93
67279;DHT22;54193;53.746;10.058;2024-02-16T02:40:48;11.74;90.65
67279;DHT22;54193;53.746;10.058;2024-02-16T02:43:33;11.68;90.44
67279;DHT22;54193;53.746;10.058;2024-02-16T02:46:19;11.70;90.60
67279;DHT22;54193;53.746;10.058;2024-02-16T02:49:05;11.61;90.68
67279;DHT22;54193;53.746;10.058;2024-02-16T02:51:51;11.63;90.69
67279;DHT22;54193;53.746;10.058;2024-02-16T02:54:36;11.64;90.51
67279;DHT22;54193;53.746;10.058;2024-02-16T02:57:22;11.63;90.60
67279;DHT22;54193;53.746;10.058;2024-02-16T03:00:08;11.64;90.71
67279;DHT22;54193;53.746;10.058;2024-02-16T03:02:56;11.60;90.92
67279;DHT22;54193;53.746;10.058;2024-02-16T03:05:42;11.63;90.78
67279;DHT22;54193;53.746;10.058;2024-02-16T03:08:28;11.60;90.82
67279;DHT22;54193;53.746;10.058;2024-02-16T03:11:13;11.60;90.74
67279;DHT22;54193;53.746;10.058;2024-02-16T03:13:59;11.58;90.96
67279;DHT22;54193;53.746;10.058;2024-02-16T03:16:45;11.56;90.82
67279;DHT22;54193;53.746;10.058;2024-02-16T03:19:30;11.61;90.80
67279;DHT22;54193;53.746;10.058;2024-02-16T03:22:16;11.64;90.60
67279;DHT22;54193;53.746;10.058;2024-02-16T03:25:02;11.60;90.36
67279;DHT22;54193;53.746;10.058;2024-02-16T03:27:48;11.61;90.63
67279;DHT22;54193;53.746;10.058;2024-02-16T03:30:33;11.73;90.31
67279;DHT22;54193;53.746;10.058;2024-02-16T03:33:20;11.63;90.22
67279;DHT22;54193;53.746;10.058;2024-02-16T03:36:06;11.57;90.48
67279;DHT22;54193;53.746;10.058;2024-02-16T03:38:51;11.58;90.34
67279;DHT22;54193;53.746;10.058;2024-02-16T03:41:37;11.63;90.40
67279;DHT22;54193;53.746;10.058;2024-02-16T03:44:23;11.67;90.20
67279;DHT22;54193;53.746;10.058;2024-02-16T03:47:08;11.60;90.19
67279;DHT22;54193;53.746;10.058;2024-02-16T03:49:54;11.64;90.10
67279;DHT22;54193;53.746;10.058;2024-02-16T03:52:40;11.73;89.93
67279;DHT22;54193;53.746;10.058;2024-02-16T03:55:26;11.64;90.07
67279;DHT22;54193;53.746;10.058;2024-02-16T03:58:11;11.73;89.97
67279;DHT22;54193;53.746;10.058;2024-02-16T04:00:57;11.73;89.87
67279;DHT22;54193;53.746;10.058;2024-02-16T04:03:43;11.77;89.81
67279;DHT22;54193;53.746;10.058;2024-02-16T04:06:29;11.71;89.88
67279;DHT22;54193;53.746;10.058;2024-02-16T04:09:15;11.71;89.90
67279;DHT22;54193;53.746;10.058;2024-02-16T04:12:01;11.73;89.82
67279;DHT22;54193;53.746;10.058;2024-02-16T04:14:47;11.67;89.68
67279;DHT22;54193;53.746;10.058;2024-02-16T04:17:32;11.60;90.09
67279;DHT22;54193;53.746;10.058;2024-02-16T04:20:19;11.73;89.72
67279;DHT22;54193;53.746;10.058;2024-02-16T04:23:05;11.75;89.50
67279;DHT22;54193;53.746;10.058;2024-02-16T04:25:50;11.81;89.36
67279;DHT22;54193;53.746;10.058;2024-02-16T04:28:36;11.81;89.33
67279;DHT22;54193;53.746;10.058;2024-02-16T04:31:21;11.78;89.28
67279;DHT22;54193;53.746;10.058;2024-02-16T04:34:07;11.86;89.17
67279;DHT22;54193;53.746;10.058;2024-02-16T04:36:53;11.86;88.99
67279;DHT22;54193;53.746;10.058;2024-02-16T04:39:39;11.88;88.94
67279;DHT22;54193;53.746;10.058;2024-02-16T04:42:25;11.88;88.77
67279;DHT22;54193;53.746;10.058;2024-02-16T04:45:11;11.77;89.42
67279;DHT22;54193;53.746;10.058;2024-02-16T04:47:56;11.74;89.33
67279;DHT22;54193;53.746;10.058;2024-02-16T04:50:42;11.63;89.71
67279;DHT22;54193;53.746;10.058;2024-02-16T04:53:28;11.68;89.31
67279;DHT22;54193;53.746;10.058;2024-02-16T04:56:13;11.70;89.35
67279;DHT22;54193;53.746;10.058;2024-02-16T04:58:59;11.63;89.51
67279;DHT22;54193;53.746;10.058;2024-02-16T05:01:44;11.61;89.51
67279;DHT22;54193;53.746;10.058;2024-02-16T05:04:30;11.63;89.28
67279;DHT22;54193;53.746;10.058;2024-02-16T05:07:16;11.60;89.53
67279;DHT22;54193;53.746;10.058;2024-02-16T05:10:01;11.60;89.57
67279;DHT22;54193;53.746;10.058;2024-02-16T05:12:47;11.67;89.03
67279;DHT22;54193;53.746;10.058;2024-02-16T05:15:32;11.63;89.25
67279;DHT22;54193;53.746;10.058;2024-02-16T05:18:21;11.64;89.10
67279;DHT22;54193;53.746;10.058;2024-02-16T05:21:06;11.61;89.09
67279;DHT22;54193;53.746;10.058;2024-02-16T05:23:52;11.51;89.50
67279;DHT22;54193;53.746;10.058;2024-02-16T05:26:37;11.60;89.23
67279;DHT22;54193;53.746;10.058;2024-02-16T05:29:23;11.60;89.22
67279;DHT22;54193;53.746;10.058;2024-02-16T05:32:09;11.64;89.12
67279;DHT22;54193;53.746;10.058;2024-02-16T05:34:55;11.43;89.49
67279;DHT22;54193;53.746;10.058;2024-02-16T05:37:42;11.43;89.56
67279;DHT22;54193;53.746;10.058;2024-02-16T05:40:29;11.38;89.64
67279;DHT22;54193;53.746;10.058;2024-02-16T05:43:16;11.34;89.82
67279;DHT22;54193;53.746;10.058;2024-02-16T05:46:02;11.33;89.79
67279;DHT22;54193;53.746;10.058;2024-02-16T05:48:48;11.31;89.73
67279;DHT22;54193;53.746;10.058;2024-02-16T05:51:35;11.33;89.65
67279;DHT22;54193;53.746;10.058;2024-02-16T05:54:21;11.27;89.83
67279;DHT22;54193;53.746;10.058;2024-02-16T05:57:07;11.27;89.87
67279;DHT22;54193;53.746;10.058;2024-02-16T05:59:54;11.24;89.84
67279;DHT22;54193;53.746;10.058;2024-02-16T06:02:39;11.26;89.90
67279;DHT22;54193;53.746;10.058;2024-02-16T06:05:25;11.19;89.94
67279;DHT22;54193;53.746;10.058;2024-02-16T06:08:11;11.19;89.97
67279;DHT22;54193;53.746;10.058;2024-02-16T06:10:56;11.20;90.00
67279;DHT22;54193;53.746;10.058;2024-02-16T06:13:42;11.19;89.83
67279;DHT22;54193;53.746;10.058;2024-02-16T06:16:27;11.10;89.81
67279;DHT22;54193;53.746;10.058;2024-02-16T06:19:13;11.05;90.04
67279;DHT22;54193;53.746;10.058;2024-02-16T06:21:59;11.05;90.08
67279;DHT22;54193;53.746;10.058;2024-02-16T06:24:45;11.06;90.09
67279;DHT22;54193;53.746;10.058;2024-02-16T06:27:30;11.00;90.03
67279;DHT22;54193;53.746;10.058;2024-02-16T06:30:16;10.98;90.19
67279;DHT22;54193;53.746;10.058;2024-02-16T06:33:02;10.92;90.04
67279;DHT22;54193;53.746;10.058;2024-02-16T06:35:47;10.95;90.34
67279;DHT22;54193;53.746;10.058;2024-02-16T06:38:36;11.06;89.74
67279;DHT22;54193;53.746;10.058;2024-02-16T06:41:22;10.91;90.15
67279;DHT22;54193;53.746;10.058;2024-02-16T06:44:08;10.88;90.21
67279;DHT22;54193;53.746;10.058;2024-02-16T06:46:53;10.82;90.32
67279;DHT22;54193;53.746;10.058;2024-02-16T06:49:39;10.79;90.37
67279;DHT22;54193;53.746;10.058;2024-02-16T06:52:24;10.79;90.33
67279;DHT22;54193;53.746;10.058;2024-02-16T06:55:10;10.96;89.83
67279;DHT22;54193;53.746;10.058;2024-02-16T06:57:56;10.96;89.71
67279;DHT22;54193;53.746;10.058;2024-02-16T07:00:42;10.88;89.89
67279;DHT22;54193;53.746;10.058;2024-02-16T07:03:28;10.79;90.20
67279;DHT22;54193;53.746;10.058;2024-02-16T07:06:13;10.78;90.18
67279;DHT22;54193;53.746;10.058;2024-02-16T07:08:59;10.78;90.34
67279;DHT22;54193;53.746;10.058;2024-02-16T07:11:44;10.76;90.24
67279;DHT22;54193;53.746;10.058;2024-02-16T07:14:31;10.78;90.17
67279;DHT22;54193;53.746;10.058;2024-02-16T07:17:17;10.85;90.30
67279;DHT22;54193;53.746;10.058;2024-02-16T07:20:02;10.88;90.18
67279;DHT22;54193;53.746;10.058;2024-02-16T07:22:51;10.89;90.08
67279;DHT22;54193;53.746;10.058;2024-02-16T07:25:36;10.93;89.84
67279;DHT22;54193;53.746;10.058;2024-02-16T07:28:22;10.96;89.82
67279;DHT22;54193;53.746;10.058;2024-02-16T07:31:08;11.08;89.79
67279;DHT22;54193;53.746;10.058;2024-02-16T07:33:54;11.16;89.60
67279;DHT22;54193;53.746;10.058;2024-02-16T07:36:39;11.23;89.21
67279;DHT22;54193;53.746;10.058;2024-02-16T07:39:25;11.37;88.47
67279;DHT22;54193;53.746;10.058;2024-02-16T07:42:10;11.48;88.33
67279;DHT22;54193;53.746;10.058;2024-02-16T07:44:58;11.60;88.13
67279;DHT22;54193;53.746;10.058;2024-02-16T07:47:43;11.63;87.90
67279;DHT22;54193;53.746;10.058;2024-02-16T07:50:29;11.78;87.51
67279;DHT22;54193;53.746;10.058;2024-02-16T07:53:14;11.79;86.98
67279;DHT22;54193;53.746;10.058;2024-02-16T07:56:00;11.78;87.07
67279;DHT22;54193;53.746;10.058;2024-02-16T07:58:46;11.78;86.92
67279;DHT22;54193;53.746;10.058;2024-02-16T08:01:31;11.79;86.85
67279;DHT22;54193;53.746;10.058;2024-02-16T08:04:17;11.86;86.68
67279;DHT22;54193;53.746;10.058;2024-02-16T08:07:02;11.99;86.38
67279;DHT22;54193;53.746;10.058;2024-02-16T08:09:48;11.92;86.21
67279;DHT22;54193;53.746;10.058;2024-02-16T08:12:34;12.11;86.03
67279;DHT22;54193;53.746;10.058;2024-02-16T08:15:20;12.18;85.96
67279;DHT22;54193;53.746;10.058;2024-02-16T08:18:09;12.33;85.40
67279;DHT22;54193;53.746;10.058;2024-02-16T08:20:57;12.58;84.68
67279;DHT22;54193;53.746;10.058;2024-02-16T08:23:42;12.83;84.10
67279;DHT22;54193;53.746;10.058;2024-02-16T08:26:28;13.04;83.28
67279;DHT22;54193;53.746;10.058;2024-02-16T08:29:13;13.11;82.62
67279;DHT22;54193;53.746;10.058;2024-02-16T08:31:59;13.01;83.19
67279;DHT22;54193;53.746;10.058;2024-02-16T08:34:44;12.98;82.68
67279;DHT22;54193;53.746;10.058;2024-02-16T08:37:30;12.92;82.68
67279;DHT22;54193;53.746;10.058;2024-02-16T08:40:15;12.92;82.88
67279;DHT22;54193;53.746;10.058;2024-02-16T08:43:01;12.92;82.99
67279;DHT22;54193;53.746;10.058;2024-02-16T08:45:48;12.99;82.63
67279;DHT22;54193;53.746;10.058;2024-02-16T08:48:34;12.94;83.02
67279;DHT22;54193;53.746;10.058;2024-02-16T08:51:20;13.11;82.20
67279;DHT22;54193;53.746;10.058;2024-02-16T08:54:06;13.02;82.31
67279;DHT22;54193;53.746;10.058;2024-02-16T08:56:52;13.02;82.12
67279;DHT22;54193;53.746;10.058;2024-02-16T08:59:38;13.01;81.66
67279;DHT22;54193;53.746;10.058;2024-02-16T09:02:24;13.12;82.21
67279;DHT22;54193;53.746;10.058;2024-02-16T09:05:10;13.06;82.29
67279;DHT22;54193;53.746;10.058;2024-02-16T09:07:55;13.05;82.10
67279;DHT22;54193;53.746;10.058;2024-02-16T09:10:41;13.19;81.77
67279;DHT22;54193;53.746;10.058;2024-02-16T09:13:27;13.23;82.02
67279;DHT22;54193;53.746;10.058;2024-02-16T09:16:12;13.23;81.36
67279;DHT22;54193;53.746;10.058;2024-02-16T09:18:58;13.22;81.42
67279;DHT22;54193;53.746;10.058;2024-02-16T09:21:44;13.29;81.30
67279;DHT22;54193;53.746;10.058;2024-02-16T09:24:29;13.36;81.27
67279;DHT22;54193;53.746;10.058;2024-02-16T09:27:15;13.30;81.54
67279;DHT22;54193;53.746;10.058;2024-02-16T09:30:01;13.40;81.38
67279;DHT22;54193;53.746;10.058;2024-02-16T09:32:48;13.38;81.09
67279;DHT22;54193;53.746;10.058;2024-02-16T09:35:34;13.39;81.18
67279;DHT22;54193;53.746;10.058;2024-02-16T09:38:19;13.42;80.72
67279;DHT22;54193;53.746;10.058;2024-02-16T09:41:05;13.42;80.34
67279;DHT22;54193;53.746;10.058;2024-02-16T09:43:51;13.47;80.78
67279;DHT22;54193;53.746;10.058;2024-02-16T09:46:39;13.39;80.58
67279;DHT22;54193;53.746;10.058;2024-02-16T09:49:25;13.39;80.83
67279;DHT22;54193;53.746;10.058;2024-02-16T09:52:11;13.49;80.49
67279;DHT22;54193;53.746;10.058;2024-02-16T09:54:59;13.69;80.81
67279;DHT22;54193;53.746;10.058;2024-02-16T09:57:45;13.85;78.88
67279;DHT22;54193;53.746;10.058;2024-02-16T10:00:31;13.92;79.02
67279;DHT22;54193;53.746;10.058;2024-02-16T10:03:26;13.70;79.68
67279;DHT22;54193;53.746;10.058;2024-02-16T10:06:12;13.73;79.67
67279;DHT22;54193;53.746;10.058;2024-02-16T10:08:58;13.61;80.95
67279;DHT22;54193;53.746;10.058;2024-02-16T10:11:44;13.57;80.14
67279;DHT22;54193;53.746;10.058;2024-02-16T10:14:29;13.59;80.69
67279;DHT22;54193;53.746;10.058;2024-02-16T10:17:17;13.63;81.17
67279;DHT22;54193;53.746;10.058;2024-02-16T10:20:03;13.63;80.45
67279;DHT22;54193;53.746;10.058;2024-02-16T10:25:49;13.84;80.40
67279;DHT22;54193;53.746;10.058;2024-02-16T10:28:35;13.85;79.63
67279;DHT22;54193;53.746;10.058;2024-02-16T10:31:21;13.88;79.85
67279;DHT22;54193;53.746;10.058;2024-02-16T10:34:13;13.90;79.88
67279;DHT22;54193;53.746;10.058;2024-02-16T10:36:59;14.00;80.17
67279;DHT22;54193;53.746;10.058;2024-02-16T10:39:45;13.98;80.35
67279;DHT22;54193;53.746;10.058;2024-02-16T10:42:31;13.95;79.97
67279;DHT22;54193;53.746;10.058;2024-02-16T10:45:18;14.14;79.73
67279;DHT22;54193;53.746;10.058;2024-02-16T10:48:06;14.08;80.01
67279;DHT22;54193;53.746;10.058;2024-02-16T10:50:52;14.08;79.81
67279;DHT22;54193;53.746;10.058;2024-02-16T10:53:39;13.87;80.79
67279;DHT22;54193;53.746;10.058;2024-02-16T10:56:42;13.85;81.28
67279;DHT22;54193;53.746;10.058;2024-02-16T10:59:28;13.80;81.76
67279;DHT22;54193;53.746;10.058;2024-02-16T11:02:22;13.77;82.22
67279;DHT22;54193;53.746;10.058;2024-02-16T11:05:08;13.81;81.93
67279;DHT22;54193;53.746;10.058;2024-02-16T11:08:00;13.95;81.70
67279;DHT22;54193;53.746;10.058;2024-02-16T11:13:41;14.29;81.19
67279;DHT22;54193;53.746;10.058;2024-02-16T11:16:27;14.47;80.73
67279;DHT22;54193;53.746;10.058;2024-02-16T11:19:13;14.60;80.58
67279;DHT22;54193;53.746;10.058;2024-02-16T11:22:06;14.70;79.27
67279;DHT22;54193;53.746;10.058;2024-02-16T11:24:58;14.80;78.88
67279;DHT22;54193;53.746;10.058;2024-02-16T11:27:44;14.74;79.19
67279;DHT22;54193;53.746;10.058;2024-02-16T11:30:33;14.94;78.54
67279;DHT22;54193;53.746;10.058;2024-02-16T11:33:22;15.10;77.67
67279;DHT22;54193;53.746;10.058;2024-02-16T11:36:07;15.21;77.85
67279;DHT22;54193;53.746;10.058;2024-02-16T11:38:53;15.27;77.26
67279;DHT22;54193;53.746;10.058;2024-02-16T11:41:39;15.28;77.02
67279;DHT22;54193;53.746;10.058;2024-02-16T11:44:24;15.29;76.57
67279;DHT22;54193;53.746;10.058;2024-02-16T11:47:10;15.38;75.42
67279;DHT22;54193;53.746;10.058;2024-02-16T11:50:06;15.40;75.22
67279;DHT22;54193;53.746;10.058;2024-02-16T11:52:59;15.42;75.41
67279;DHT22;54193;53.746;10.058;2024-02-16T11:55:48;15.50;74.92
67279;DHT22;54193;53.746;10.058;2024-02-16T11:58:34;15.31;75.36
67279;DHT22;54193;53.746;10.058;2024-02-16T12:01:19;15.00;76.63
67279;DHT22;54193;53.746;10.058;2024-02-16T12:04:06;15.27;75.98
67279;DHT22;54193;53.746;10.058;2024-02-16T12:06:59;15.39;76.01
67279;DHT22;54193;53.746;10.058;2024-02-16T12:09:54;15.53;75.29
67279;DHT22;54193;53.746;10.058;2024-02-16T12:12:39;15.67;75.15
67279;DHT22;54193;53.746;10.058;2024-02-16T12:15:27;15.45;75.95
67279;DHT22;54193;53.746;10.058;2024-02-16T12:18:22;15.50;75.96
67279;DHT22;54193;53.746;10.058;2024-02-16T12:21:08;15.67;75.21
67279;DHT22;54193;53.746;10.058;2024-02-16T12:23:56;15.63;74.96
67279;DHT22;54193;53.746;10.058;2024-02-16T12:26:42;15.60;75.41
67279;DHT22;54193;53.746;10.058;2024-02-16T12:29:27;15.53;75.91
67279;DHT22;54193;53.746;10.058;2024-02-16T12:32:13;15.42;75.34
67279;DHT22;54193;53.746;10.058;2024-02-16T12:35:03;15.43;75.86
67279;DHT22;54193;53.746;10.058;2024-02-16T12:37:50;15.53;75.57
67279;DHT22;54193;53.746;10.058;2024-02-16T12:40:36;15.39;76.34
67279;DHT22;54193;53.746;10.058;2024-02-16T12:43:21;15.49;75.92
67279;DHT22;54193;53.746;10.058;2024-02-16T12:46:07;15.42;76.39
67279;DHT22;54193;53.746;10.058;2024-02-16T12:48:52;15.62;75.99
67279;DHT22;54193;53.746;10.058;2024-02-16T12:51:39;15.70;75.59
67279;DHT22;54193;53.746;10.058;2024-02-16T12:54:24;15.59;76.27
67279;DHT22;54193;53.746;10.058;2024-02-16T12:57:12;15.55;75.68
67279;DHT22;54193;53.746;10.058;2024-02-16T12:59:57;15.45;76.73
67279;DHT22;54193;53.746;10.058;2024-02-16T13:02:43;15.55;76.97
67279;DHT22;54193;53.746;10.058;2024-02-16T13:05:29;15.57;76.68
67279;DHT22;54193;53.746;10.058;2024-02-16T13:08:17;15.43;77.36
67279;DHT22;54193;53.746;10.058;2024-02-16T13:11:02;15.42;77.53
67279;DHT22;54193;53.746;10.058;2024-02-16T13:13:48;15.38;77.26
67279;DHT22;54193;53.746;10.058;2024-02-16T13:16:34;15.25;77.67
67279;DHT22;54193;53.746;10.058;2024-02-16T13:19:19;15.22;78.72
67279;DHT22;54193;53.746;10.058;2024-02-16T13:22:05;15.08;79.61
67279;DHT22;54193;53.746;10.058;2024-02-16T13:24:51;14.77;81.43
67279;DHT22;54193;53.746;10.058;2024-02-16T13:27:36;14.66;81.80
67279;DHT22;54193;53.746;10.058;2024-02-16T13:30:22;14.56;82.67
67279;DHT22;54193;53.746;10.058;2024-02-16T13:33:08;14.53;82.90
67279;DHT22;54193;53.746;10.058;2024-02-16T13:35:54;14.53;83.44
67279;DHT22;54193;53.746;10.058;2024-02-16T13:38:40;14.66;83.20
67279;DHT22;54193;53.746;10.058;2024-02-16T13:41:26;14.76;82.70
67279;DHT22;54193;53.746;10.058;2024-02-16T13:44:11;14.79;82.52
67279;DHT22;54193;53.746;10.058;2024-02-16T13:46:57;14.79;82.73
67279;DHT22;54193;53.746;10.058;2024-02-16T13:49:42;14.97;82.08
67279;DHT22;54193;53.746;10.058;2024-02-16T13:52:28;14.90;81.48
67279;DHT22;54193;53.746;10.058;2024-02-16T13:55:14;14.98;81.76
67279;DHT22;54193;53.746;10.058;2024-02-16T13:57:59;14.87;81.88
67279;DHT22;54193;53.746;10.058;2024-02-16T14:00:45;15.01;81.27
67279;DHT22;54193;53.746;10.058;2024-02-16T14:03:31;14.94;81.77
67279;DHT22;54193;53.746;10.058;2024-02-16T14:06:17;14.85;81.88
67279;DHT22;54193;53.746;10.058;2024-02-16T14:09:03;14.87;81.74
67279;DHT22;54193;53.746;10.058;2024-02-16T14:11:54;14.77;81.77
67279;DHT22;54193;53.746;10.058;2024-02-16T14:14:41;14.90;81.56
67279;DHT22;54193;53.746;10.058;2024-02-16T14:17:26;14.90;81.39
67279;DHT22;54193;53.746;10.058;2024-02-16T14:20:12;14.95;81.21
67279;DHT22;54193;53.746;10.058;2024-02-16T14:22:57;14.81;81.78
67279;DHT22;54193;53.746;10.058;2024-02-16T14:25:43;14.98;81.38
67279;DHT22;54193;53.746;10.058;2024-02-16T14:28:29;14.91;81.20
67279;DHT22;54193;53.746;10.058;2024-02-16T14:31:14;14.81;81.83
67279;DHT22;54193;53.746;10.058;2024-02-16T14:34:02;14.74;81.76
67279;DHT22;54193;53.746;10.058;2024-02-16T14:36:47;14.72;82.09
67279;DHT22;54193;53.746;10.058;2024-02-16T14:39:33;14.84;81.57
67279;DHT22;54193;53.746;10.058;2024-02-16T14:42:18;14.73;81.86
67279;DHT22;54193;53.746;10.058;2024-02-16T14:45:04;14.77;81.79
67279;DHT22;54193;53.746;10.058;2024-02-16T14:47:51;14.73;82.00
67279;DHT22;54193;53.746;10.058;2024-02-16T14:50:36;14.70;82.31
67279;DHT22;54193;53.746;10.058;2024-02-16T14:53:22;14.67;82.37
67279;DHT22;54193;53.746;10.058;2024-02-16T14:56:07;14.50;83.05
67279;DHT22;54193;53.746;10.058;2024-02-16T14:58:54;14.47;83.67
67279;DHT22;54193;53.746;10.058;2024-02-16T15:01:39;14.50;83.36
67279;DHT22;54193;53.746;10.058;2024-02-16T15:04:25;14.30;84.32
67279;DHT22;54193;53.746;10.058;2024-02-16T15:07:11;14.28;83.93
67279;DHT22;54193;53.746;10.058;2024-02-16T15:09:56;14.35;84.15
67279;DHT22;54193;53.746;10.058;2024-02-16T15:12:42;14.17;85.02
67279;DHT22;54193;53.746;10.058;2024-02-16T15:15:28;14.09;85.61
67279;DHT22;54193;53.746;10.058;2024-02-16T15:18:13;13.95;86.38
67279;DHT22;54193;53.746;10.058;2024-02-16T15:20:59;13.90;86.94
67279;DHT22;54193;53.746;10.058;2024-02-16T15:23:45;14.00;87.43
67279;DHT22;54193;53.746;10.058;2024-02-16T15:26:31;14.00;87.54
67279;DHT22;54193;53.746;10.058;2024-02-16T15:29:17;13.87;88.19
67279;DHT22;54193;53.746;10.058;2024-02-16T15:32:02;13.87;88.21
67279;DHT22;54193;53.746;10.058;2024-02-16T15:34:48;13.77;88.25
67279;DHT22;54193;53.746;10.058;2024-02-16T15:37:38;13.50;88.83
67279;DHT22;54193;53.746;10.058;2024-02-16T15:40:24;13.54;88.75
67279;DHT22;54193;53.746;10.058;2024-02-16T15:43:10;13.59;89.04
67279;DHT22;54193;53.746;10.058;2024-02-16T15:45:57;13.59;88.73
67279;DHT22;54193;53.746;10.058;2024-02-16T15:48:42;13.52;88.97
67279;DHT22;54193;53.746;10.058;2024-02-16T15:51:28;13.50;88.75
67279;DHT22;54193;53.746;10.058;2024-02-16T15:54:14;13.52;88.66
67279;DHT22;54193;53.746;10.058;2024-02-16T15:56:59;13.47;88.43
67279;DHT22;54193;53.746;10.058;2024-02-16T15:59:45;13.40;88.65
67279;DHT22;54193;53.746;10.058;2024-02-16T16:02:32;13.27;88.11
67279;DHT22;54193;53.746;10.058;2024-02-16T16:05:17;13.32;88.57
67279;DHT22;54193;53.746;10.058;2024-02-16T16:08:03;13.26;88.67
67279;DHT22;54193;53.746;10.058;2024-02-16T16:10:48;13.05;89.44
67279;DHT22;54193;53.746;10.058;2024-02-16T16:13:34;12.87;90.19
67279;DHT22;54193;53.746;10.058;2024-02-16T16:16:20;12.74;90.73
67279;DHT22;54193;53.746;10.058;2024-02-16T16:19:07;12.53;91.38
67279;DHT22;54193;53.746;10.058;2024-02-16T16:21:53;12.23;92.12
67279;DHT22;54193;53.746;10.058;2024-02-16T16:24:39;12.13;92.13
67279;DHT22;54193;53.746;10.058;2024-02-16T16:27:25;12.11;92.20
67279;DHT22;54193;53.746;10.058;2024-02-16T16:30:11;12.12;92.11
67279;DHT22;54193;53.746;10.058;2024-02-16T16:32:57;12.03;92.22
67279;DHT22;54193;53.746;10.058;2024-02-16T16:35:42;12.06;91.99
67279;DHT22;54193;53.746;10.058;2024-02-16T16:38:28;11.94;92.14
67279;DHT22;54193;53.746;10.058;2024-02-16T16:41:14;11.82;92.09
67279;DHT22;54193;53.746;10.058;2024-02-16T16:43:59;11.74;92.95
67279;DHT22;54193;53.746;10.058;2024-02-16T16:46:45;11.78;92.73
67279;DHT22;54193;53.746;10.058;2024-02-16T16:49:31;11.86;92.62
67279;DHT22;54193;53.746;10.058;2024-02-16T16:52:16;11.73;92.84
67279;DHT22;54193;53.746;10.058;2024-02-16T16:55:02;11.53;92.95
67279;DHT22;54193;53.746;10.058;2024-02-16T16:57:47;11.44;92.92
67279;DHT22;54193;53.746;10.058;2024-02-16T17:00:33;11.50;92.62
67279;DHT22;54193;53.746;10.058;2024-02-16T17:03:19;11.46;92.88
67279;DHT22;54193;53.746;10.058;2024-02-16T17:06:05;11.43;92.82
67279;DHT22;54193;53.746;10.058;2024-02-16T17:08:50;11.67;92.80
67279;DHT22;54193;53.746;10.058;2024-02-16T17:11:37;11.54;92.92
67279;DHT22;54193;53.746;10.058;2024-02-16T17:14:23;11.46;92.70
67279;DHT22;54193;53.746;10.058;2024-02-16T17:17:11;11.38;93.02